Time;durP1;ratioP1;P1;durP2;ratioP2;P2;SDS_P1;SDS_P2;PMS_P1;PMS_P2;Temp;Humidity;BMP_temperature;BMP_pressure;BME280_temperature;BME280_humidity;BME280_pressure;Samples;Min_cycle;Max_cycle;Signal;HPM_P1;HPM_P2
2023/01/11 00:01:33;;;;;;;9.45;1.60;;;6.90;99.90;;;;;;5070440;28;20023;-63
2023/01/11 00:03:59;;;;;;;10.52;2.05;;;6.90;99.90;;;;;;5070885;28;20058;-64
2023/01/11 00:06:24;;;;;;;8.95;2.00;;;6.90;99.90;;;;;;5071650;28;20017;-57
2023/01/11 00:08:50;;;;;;;9.50;2.35;;;6.90;99.90;;;;;;5053511;28;20044;-63
2023/01/11 00:11:16;;;;;;;6.10;1.80;;;6.80;99.90;;;;;;5071975;28;20533;-64
2023/01/11 00:13:44;;;;;;;6.90;2.20;;;6.90;99.90;;;;;;5071484;28;20311;-63
2023/01/11 00:16:10;;;;;;;3.50;2.42;;;7.00;99.90;;;;;;5071711;28;20036;-63
2023/01/11 00:18:36;;;;;;;5.70;2.20;;;7.00;99.90;;;;;;5071653;28;20028;-62
2023/01/11 00:21:04;;;;;;;6.38;1.67;;;7.00;99.90;;;;;;5071978;28;20021;-61
2023/01/11 00:23:30;;;;;;;7.07;1.90;;;7.10;99.90;;;;;;5070747;28;20016;-63
2023/01/11 00:25:56;;;;;;;11.13;2.15;;;7.10;99.90;;;;;;5071525;28;20017;-62
2023/01/11 00:28:21;;;;;;;8.55;1.88;;;7.00;99.90;;;;;;5071319;28;20377;-64
2023/01/11 00:30:48;;;;;;;3.63;1.58;;;7.10;99.90;;;;;;5071543;28;20024;-62
2023/01/11 00:33:13;;;;;;;6.60;1.55;;;7.10;99.90;;;;;;5052436;28;20021;-63
2023/01/11 00:35:39;;;;;;;8.45;2.58;;;7.10;99.90;;;;;;5071014;28;20081;-62
2023/01/11 00:38:04;;;;;;;6.13;1.70;;;7.10;99.90;;;;;;5071016;28;20412;-63
2023/01/11 00:40:30;;;;;;;10.27;2.15;;;7.10;99.90;;;;;;5071001;28;20048;-62
2023/01/11 00:48:23;;;;;;;9.40;2.08;;;7.20;99.90;;;;;;5071365;28;20055;-62
2023/01/11 00:50:52;;;;;;;6.57;2.03;;;7.30;99.90;;;;;;5070991;28;20025;-62
2023/01/11 00:53:18;;;;;;;7.20;1.90;;;7.30;99.90;;;;;;5052177;28;20028;-63
2023/01/11 00:55:44;;;;;;;13.50;3.45;;;7.20;99.90;;;;;;5071072;28;20032;-62
2023/01/11 00:58:09;;;;;;;9.10;2.38;;;7.20;99.90;;;;;;5071103;28;20392;-62
2023/01/11 01:00:35;;;;;;;5.90;2.78;;;7.30;99.90;;;;;;5068880;28;20105;-63
2023/01/11 01:03:01;;;;;;;4.82;2.00;;;7.30;99.90;;;;;;5070443;28;20025;-62
2023/01/11 01:05:26;;;;;;;7.30;2.47;;;7.30;99.90;;;;;;5071048;28;20485;-62
2023/01/11 01:07:52;;;;;;;7.57;2.22;;;7.40;99.90;;;;;;5070584;28;20012;-62
2023/01/11 01:10:18;;;;;;;8.80;2.28;;;7.40;99.90;;;;;;5072237;28;20025;-62
2023/01/11 01:15:29;;;;;;;6.00;3.15;;;7.40;99.90;;;;;;5074724;28;20097;-62
2023/01/11 01:17:54;;;;;;;6.63;2.25;;;7.40;99.90;;;;;;5073933;28;20024;-62
2023/01/11 01:20:21;;;;;;;4.35;1.92;;;7.40;99.90;;;;;;5075209;28;20020;-62
2023/01/11 01:22:47;;;;;;;4.55;1.60;;;7.30;99.90;;;;;;5055310;28;20393;-62
2023/01/11 01:25:14;;;;;;;4.57;2.38;;;7.40;99.90;;;;;;5074010;28;20315;-62
2023/01/11 01:27:40;;;;;;;8.82;2.17;;;7.30;99.90;;;;;;5074390;28;20013;-62
2023/01/11 01:30:06;;;;;;;9.50;2.28;;;7.30;99.90;;;;;;5074263;28;20024;-61
2023/01/11 01:32:32;;;;;;;8.70;2.08;;;7.40;99.90;;;;;;5073749;28;20032;-62
2023/01/11 01:34:57;;;;;;;8.32;3.20;;;7.30;99.90;;;;;;5074481;28;20560;-62
2023/01/11 01:37:23;;;;;;;5.70;1.90;;;7.40;99.90;;;;;;5074544;28;20090;-62
2023/01/11 01:39:48;;;;;;;8.57;2.83;;;7.40;99.90;;;;;;5074503;28;20025;-62
2023/01/11 01:42:17;;;;;;;9.00;1.65;;;7.40;99.90;;;;;;5073518;28;20032;-63
2023/01/11 01:45:06;;;;;;;7.35;1.98;;;7.50;99.90;;;;;;5056479;28;20408;-61
2023/01/11 01:47:38;;;;;;;8.85;2.88;;;7.40;99.90;;;;;;5073941;28;20040;-62
2023/01/11 01:50:16;;;;;;;5.15;1.77;;;7.40;99.90;;;;;;5055935;28;20062;-61
2023/01/11 01:52:46;;;;;;;8.30;1.80;;;7.40;99.90;;;;;;5073189;28;20437;-62
2023/01/11 01:55:17;;;;;;;5.25;1.88;;;7.50;99.90;;;;;;5073766;28;20020;-62
2023/01/11 01:57:44;;;;;;;2.30;1.65;;;7.50;99.90;;;;;;5073623;28;20040;-62
2023/01/11 02:00:11;;;;;;;5.60;1.60;;;7.50;99.90;;;;;;5071903;28;20028;-60
2023/01/11 02:02:39;;;;;;;3.38;1.55;;;7.50;99.90;;;;;;5072725;28;20035;-62
2023/01/11 02:05:06;;;;;;;5.88;1.80;;;7.60;99.90;;;;;;5073276;28;20099;-62
2023/01/11 02:07:36;;;;;;;3.63;2.08;;;7.60;99.90;;;;;;5073702;28;20092;-61
2023/01/11 02:10:12;;;;;;;8.32;2.25;;;7.70;99.90;;;;;;5073740;28;20038;-62
2023/01/11 02:12:49;;;;;;;;;;;7.70;99.90;;;;;;5073318;28;20029;-62
2023/01/11 02:15:17;;;;;;;7.10;2.22;;;7.70;99.90;;;;;;5073335;28;20370;-61
2023/01/11 02:17:43;;;;;;;3.53;1.80;;;7.40;99.90;;;;;;5073246;28;20020;-60
2023/01/11 02:21:01;;;;;;;5.45;2.00;;;7.70;99.90;;;;;;5073124;28;20107;-62
2023/01/11 02:23:49;;;;;;;5.32;1.95;;;7.70;99.90;;;;;;5029750;28;20160;-61
2023/01/11 02:26:54;;;;;;;4.30;2.65;;;7.70;99.90;;;;;;5071021;28;20515;-61
2023/01/11 02:29:48;;;;;;;6.82;1.77;;;7.70;99.90;;;;;;5072871;28;20028;-62
2023/01/11 02:32:22;;;;;;;2.97;1.60;;;7.70;99.90;;;;;;5072573;28;20033;-61
2023/01/11 02:34:58;;;;;;;5.90;1.70;;;7.70;99.90;;;;;;5073188;28;20104;-62
2023/01/11 02:37:47;;;;;;;7.82;2.10;;;7.70;99.90;;;;;;5073102;28;20025;-62
2023/01/11 02:40:22;;;;;;;5.65;1.90;;;7.70;99.90;;;;;;5073205;28;20098;-62
2023/01/11 02:46:20;;;;;;;4.05;1.40;;;7.80;99.90;;;;;;5072923;28;20086;-61
2023/01/11 02:48:48;;;;;;;8.10;1.70;;;7.80;99.90;;;;;;5066707;28;20044;-61
2023/01/11 02:51:25;;;;;;;1.98;1.30;;;7.70;99.90;;;;;;5072689;28;20082;-61
2023/01/11 02:54:04;;;;;;;7.07;1.95;;;7.80;99.90;;;;;;5072211;28;20024;-62
2023/01/11 02:56:34;;;;;;;5.13;1.67;;;7.80;99.90;;;;;;5072367;28;20028;-62
2023/01/11 02:59:02;;;;;;;5.40;1.67;;;7.50;99.90;;;;;;5072713;28;20403;-61
2023/01/11 03:01:28;;;;;;;2.72;1.42;;;7.80;99.90;;;;;;5071663;28;20431;-59
2023/01/11 03:03:54;;;;;;;5.78;1.77;;;7.90;99.90;;;;;;5071845;28;20025;-62
2023/01/11 03:06:30;;;;;;;6.85;1.70;;;8.00;99.90;;;;;;5072670;28;20476;-62
2023/01/11 03:09:05;;;;;;;3.72;1.35;;;7.90;99.90;;;;;;5073013;28;20031;-62
2023/01/11 03:14:38;;;;;;;4.75;1.60;;;8.00;99.90;;;;;;5072392;28;20031;-62
2023/01/11 03:17:40;;;;;;;5.70;1.38;;;8.10;99.90;;;;;;5072276;28;20031;-62
2023/01/11 03:20:25;;;;;;;4.88;2.08;;;8.10;99.90;;;;;;5072398;28;20029;-62
2023/01/11 03:23:03;;;;;;;4.90;1.53;;;8.10;99.90;;;;;;5053375;28;20493;-61
2023/01/11 03:26:12;;;;;;;4.75;2.22;;;8.10;99.90;;;;;;5071967;28;20050;-62
2023/01/11 03:28:54;;;;;;;5.55;1.50;;;8.10;99.90;;;;;;5056361;28;20043;-62
2023/01/11 03:31:37;;;;;;;9.00;1.67;;;8.10;99.90;;;;;;5054285;28;20115;-60
2023/01/11 03:34:18;;;;;;;6.70;1.50;;;8.10;99.90;;;;;;5070636;28;20496;-62
2023/01/11 03:36:52;;;;;;;2.15;1.48;;;8.10;99.90;;;;;;5053998;28;20029;-61
2023/01/11 03:39:34;;;;;;;2.10;1.20;;;8.10;99.90;;;;;;5072097;28;20115;-62
2023/01/11 03:42:02;;;;;;;4.85;1.55;;;8.10;99.90;;;;;;5071282;28;20025;-62
2023/01/11 03:44:34;;;;;;;2.75;1.27;;;8.10;99.90;;;;;;5072101;28;20115;-60
2023/01/11 03:47:09;;;;;;;2.83;1.40;;;8.10;99.90;;;;;;5071798;28;20048;-61
2023/01/11 03:49:50;;;;;;;3.53;1.30;;;8.10;99.90;;;;;;5071665;28;20023;-62
2023/01/11 03:52:21;;;;;;;3.25;1.30;;;8.20;99.90;;;;;;5053276;28;20041;-62
2023/01/11 03:54:48;;;;;;;11.07;1.25;;;8.20;99.90;;;;;;5053753;28;20523;-60
2023/01/11 03:57:22;;;;;;;4.38;1.50;;;8.30;99.90;;;;;;5072093;28;20041;-62
2023/01/11 03:59:49;;;;;;;1.77;1.30;;;8.30;99.90;;;;;;5071829;28;20127;-61
2023/01/11 04:02:17;;;;;;;4.93;1.60;;;8.30;99.90;;;;;;5069204;28;20021;-63
2023/01/11 04:04:43;;;;;;;6.50;1.27;;;8.30;99.90;;;;;;5071718;28;20099;-62
2023/01/11 04:07:08;;;;;;;4.90;1.60;;;8.30;99.90;;;;;;5071490;28;20109;-62
2023/01/11 04:09:34;;;;;;;2.92;1.58;;;8.30;99.90;;;;;;5053641;28;20021;-62
2023/01/11 04:11:59;;;;;;;2.97;1.73;;;8.30;99.90;;;;;;5071032;28;20036;-62
2023/01/11 04:14:25;;;;;;;4.28;1.42;;;8.20;99.90;;;;;;5071436;28;20078;-62
2023/01/11 04:16:50;;;;;;;4.32;1.42;;;8.40;99.90;;;;;;5071250;28;20099;-62
2023/01/11 04:19:16;;;;;;;7.00;1.67;;;8.30;99.90;;;;;;5071558;28;20036;-61
2023/01/11 04:21:41;;;;;;;1.98;1.55;;;8.30;99.90;;;;;;5071733;28;20035;-62
2023/01/11 04:24:07;;;;;;;6.28;1.63;;;8.40;99.90;;;;;;5070987;28;20111;-62
2023/01/11 04:26:33;;;;;;;6.20;2.00;;;8.50;99.90;;;;;;5053876;28;20013;-62
2023/01/11 04:28:58;;;;;;;4.80;2.17;;;8.40;99.90;;;;;;5071607;28;20082;-62
2023/01/11 04:31:24;;;;;;;5.85;1.75;;;8.30;99.90;;;;;;5071271;28;20017;-61
2023/01/11 04:33:49;;;;;;;7.00;1.92;;;8.40;99.90;;;;;;5052950;28;20407;-62
2023/01/11 04:36:15;;;;;;;5.68;1.77;;;8.40;99.90;;;;;;5053312;28;20024;-62
2023/01/11 04:38:40;;;;;;;5.13;2.72;;;8.40;99.90;;;;;;5071331;28;20028;-62
2023/01/11 04:43:53;;;;;;;6.43;2.20;;;8.20;99.90;;;;;;5070234;28;20067;-62
2023/01/11 04:46:18;;;;;;;8.63;2.35;;;8.70;99.90;;;;;;5074353;28;20021;-63
2023/01/11 04:48:44;;;;;;;6.60;2.78;;;8.20;99.90;;;;;;5075145;28;20495;-62
2023/01/11 04:51:09;;;;;;;4.30;1.90;;;8.20;99.90;;;;;;5075023;28;20115;-63
2023/01/11 04:53:35;;;;;;;4.10;2.03;;;8.30;99.90;;;;;;5074229;28;20446;-62
2023/01/11 04:56:05;;;;;;;15.52;4.13;;;8.30;99.90;;;;;;5074731;28;20031;-62
2023/01/11 04:58:31;;;;;;;5.25;2.45;;;8.30;99.90;;;;;;5056574;28;20400;-62
2023/01/11 05:00:57;;;;;;;9.57;2.95;;;8.30;99.90;;;;;;5055797;28;20063;-62
2023/01/11 05:03:23;;;;;;;3.75;1.92;;;8.30;99.90;;;;;;5056080;28;20129;-62
2023/01/11 05:05:59;;;;;;;5.22;2.22;;;8.30;99.90;;;;;;5074973;28;20025;-63
2023/01/11 05:08:26;;;;;;;6.00;1.98;;;8.30;99.90;;;;;;5074584;28;20059;-62
2023/01/11 05:10:56;;;;;;;3.78;2.60;;;8.20;99.90;;;;;;5074705;28;20024;-62
2023/01/11 05:13:40;;;;;;;7.97;2.85;;;8.30;99.90;;;;;;5073881;28;20107;-63
2023/01/11 05:16:18;;;;;;;5.68;2.40;;;8.30;99.90;;;;;;5074390;28;20023;-62
2023/01/11 05:18:54;;;;;;;8.65;2.55;;;8.30;99.90;;;;;;5074074;28;20503;-59
2023/01/11 05:21:22;;;;;;;8.00;2.50;;;8.30;99.90;;;;;;5074497;28;20063;-60
2023/01/11 05:23:48;;;;;;;6.82;2.33;;;8.30;99.90;;;;;;5073722;28;20369;-61
2023/01/11 05:26:17;;;;;;;4.15;2.50;;;8.30;99.90;;;;;;5074695;28;20031;-60
2023/01/11 05:28:43;;;;;;;6.10;2.63;;;8.40;99.90;;;;;;5074033;28;20025;-62
2023/01/11 05:31:08;;;;;;;5.13;2.95;;;8.30;99.90;;;;;;5073879;28;20422;-60
2023/01/11 05:33:34;;;;;;;3.15;2.20;;;8.40;99.90;;;;;;5073771;28;20028;-63
2023/01/11 05:36:02;;;;;;;6.07;2.38;;;8.40;99.90;;;;;;5074199;28;20585;-62
2023/01/11 05:38:28;;;;;;;5.35;2.10;;;9.30;99.90;;;;;;5073997;28;20059;-62
2023/01/11 05:41:02;;;;;;;3.28;2.00;;;8.40;99.90;;;;;;5073817;28;20538;-62
2023/01/11 05:43:28;;;;;;;6.57;2.08;;;8.50;99.90;;;;;;5073380;28;20119;-61
2023/01/11 05:45:55;;;;;;;3.20;1.90;;;8.50;99.90;;;;;;5073525;28;20369;-62
2023/01/11 05:48:21;;;;;;;9.00;2.60;;;8.50;99.90;;;;;;5074008;28;20474;-63
2023/01/11 05:50:52;;;;;;;9.48;2.75;;;8.50;99.90;;;;;;5056061;28;20029;-63
2023/01/11 05:53:18;;;;;;;6.03;2.22;;;8.50;99.90;;;;;;5072781;28;20060;-63
2023/01/11 05:55:53;;;;;;;2.88;2.30;;;8.50;99.90;;;;;;5055185;28;20428;-61
2023/01/11 05:58:19;;;;;;;3.15;1.75;;;8.50;99.90;;;;;;5072767;28;20044;-62
2023/01/11 06:00:50;;;;;;;6.63;1.70;;;8.50;99.90;;;;;;5072274;28;20033;-63
2023/01/11 06:03:15;;;;;;;6.07;2.42;;;8.50;99.90;;;;;;5072565;28;20024;-63
2023/01/11 06:05:41;;;;;;;3.08;2.05;;;8.50;99.90;;;;;;5073196;28;20017;-63
2023/01/11 06:08:07;;;;;;;3.88;1.92;;;8.50;99.90;;;;;;5055221;28;20016;-63
2023/01/11 06:10:33;;;;;;;7.85;2.25;;;8.40;99.90;;;;;;5073051;28;20065;-63
2023/01/11 06:15:42;;;;;;;3.20;1.67;;;8.40;99.90;;;;;;5073434;28;20540;-63
2023/01/11 06:18:08;;;;;;;5.63;2.65;;;8.30;99.90;;;;;;5073153;28;20029;-63
2023/01/11 06:20:34;;;;;;;5.90;2.20;;;8.40;99.90;;;;;;5055454;28;20389;-61
2023/01/11 06:22:59;;;;;;;6.22;2.47;;;8.40;99.90;;;;;;5072435;28;20028;-61
2023/01/11 06:25:25;;;;;;;4.18;1.85;;;8.30;99.90;;;;;;5073218;28;20028;-63
2023/01/11 06:27:52;;;;;;;4.70;2.20;;;8.40;99.90;;;;;;5072785;28;20056;-62
2023/01/11 06:30:19;;;;;;;6.40;2.00;;;8.40;99.90;;;;;;5054864;28;20461;-63
2023/01/11 06:32:44;;;;;;;5.18;2.35;;;8.40;99.90;;;;;;5072021;28;20028;-63
2023/01/11 06:35:10;;;;;;;3.88;1.98;;;8.40;99.90;;;;;;5072521;28;20400;-63
2023/01/11 06:37:36;;;;;;;6.32;2.30;;;8.40;99.90;;;;;;5072626;28;20032;-63
2023/01/11 06:40:02;;;;;;;3.50;2.30;;;8.40;99.90;;;;;;5054932;28;20013;-63
2023/01/11 06:42:27;;;;;;;5.30;1.92;;;8.40;99.90;;;;;;5071665;28;20035;-62
2023/01/11 06:44:52;;;;;;;2.53;1.63;;;8.40;99.90;;;;;;5072351;28;20024;-62
2023/01/11 06:47:18;;;;;;;3.97;1.90;;;8.40;99.90;;;;;;5054458;28;20492;-63
2023/01/11 06:49:43;;;;;;;2.95;1.75;;;8.50;99.90;;;;;;5072098;28;20032;-62
2023/01/11 06:52:09;;;;;;;4.00;2.15;;;8.50;99.90;;;;;;5071548;28;20096;-63
2023/01/11 06:54:34;;;;;;;3.72;2.55;;;8.60;99.90;;;;;;5072338;28;20395;-63
2023/01/11 06:57:00;;;;;;;7.53;2.72;;;8.60;99.90;;;;;;5054297;28;20501;-63
2023/01/11 06:59:25;;;;;;;5.32;2.38;;;8.60;99.90;;;;;;5071846;28;20074;-63
2023/01/11 07:01:51;;;;;;;5.53;2.35;;;8.60;99.90;;;;;;5052522;28;20031;-61
2023/01/11 07:04:18;;;;;;;6.18;2.92;;;8.70;99.90;;;;;;5071307;28;20040;-63
2023/01/11 07:06:44;;;;;;;2.80;2.33;;;8.60;99.90;;;;;;5072009;28;20013;-63
2023/01/11 07:09:09;;;;;;;6.68;2.60;;;8.70;99.90;;;;;;5071742;28;20031;-61
2023/01/11 07:11:37;;;;;;;4.97;2.97;;;8.70;99.90;;;;;;5071703;28;20039;-61
2023/01/11 07:14:06;;;;;;;5.35;2.70;;;8.70;99.90;;;;;;5071163;28;20402;-61
2023/01/11 07:16:31;;;;;;;4.75;2.70;;;8.70;99.90;;;;;;5072320;28;20029;-61
2023/01/11 07:18:57;;;;;;;6.53;2.85;;;8.70;99.90;;;;;;5098570;22;20418;-59
2023/01/11 07:21:22;;;;;;;5.90;2.25;;;8.80;99.90;;;;;;5095835;28;20032;-61
2023/01/11 07:23:50;;;;;;;6.32;2.50;;;8.80;99.90;;;;;;5094837;28;20020;-62
2023/01/11 07:26:16;;;;;;;4.35;2.55;;;8.80;99.90;;;;;;5095895;28;20024;-60
2023/01/11 07:28:42;;;;;;;5.63;2.30;;;8.80;99.90;;;;;;5094813;28;20479;-59
2023/01/11 07:31:08;;;;;;;3.35;2.30;;;8.90;99.90;;;;;;5093992;28;20027;-61
2023/01/11 07:33:33;;;;;;;4.43;2.65;;;8.90;99.90;;;;;;5094383;28;20039;-61
2023/01/11 07:35:59;;;;;;;6.90;2.30;;;8.90;99.90;;;;;;5094283;28;20031;-57
2023/01/11 07:38:28;;;;;;;4.82;2.35;;;8.90;99.90;;;;;;5094439;28;20027;-59
2023/01/11 07:40:53;;;;;;;5.20;3.03;;;8.90;99.90;;;;;;5094471;28;20387;-57
2023/01/11 07:43:21;;;;;;;9.68;2.95;;;8.90;99.90;;;;;;5093277;28;20031;-60
2023/01/11 07:45:49;;;;;;;6.80;2.67;;;9.00;99.90;;;;;;5093738;28;20509;-56
2023/01/11 07:48:19;;;;;;;6.97;2.80;;;8.90;99.90;;;;;;5094589;28;20031;-62
2023/01/11 07:50:45;;;;;;;4.75;2.42;;;9.00;99.90;;;;;;5094344;28;20039;-59
2023/01/11 07:53:12;;;;;;;2.83;2.53;;;9.00;99.90;;;;;;5093932;28;20048;-62
2023/01/11 07:55:38;;;;;;;6.60;2.28;;;9.10;99.90;;;;;;5075983;28;20425;-60
2023/01/11 07:58:08;;;;;;;5.47;2.58;;;9.00;99.90;;;;;;5094667;28;20114;-59
2023/01/11 08:00:34;;;;;;;3.70;2.00;;;9.00;99.90;;;;;;5092215;28;20012;-59
2023/01/11 08:03:00;;;;;;;3.08;1.75;;;8.90;99.90;;;;;;5093401;28;20480;-61
2023/01/11 08:05:25;;;;;;;2.85;1.95;;;9.00;99.90;;;;;;5094339;28;20441;-61
2023/01/11 08:07:51;;;;;;;3.97;1.70;;;9.00;99.90;;;;;;5094078;28;20035;-57
2023/01/11 08:10:16;;;;;;;2.50;1.80;;;9.00;99.90;;;;;;5075424;28;20028;-61
2023/01/11 08:15:32;;;;;;;4.32;1.60;;;9.10;99.90;;;;;;5093395;28;20502;-62
2023/01/11 08:17:58;;;;;;;4.18;1.33;;;9.00;99.90;;;;;;5093287;28;20036;-62
2023/01/11 08:20:25;;;;;;;7.13;1.35;;;9.00;99.90;;;;;;5095153;28;20040;-61
2023/01/11 08:22:51;;;;;;;3.53;1.00;;;9.00;99.90;;;;;;5096102;28;20024;-63
2023/01/11 08:25:17;;;;;;;1.33;1.23;;;9.10;99.90;;;;;;5078889;28;20111;-59
2023/01/11 08:27:43;;;;;;;2.22;1.00;;;9.10;99.90;;;;;;5096954;28;20095;-60
2023/01/11 08:30:09;;;;;;;4.10;1.38;;;9.10;99.90;;;;;;5096793;28;20020;-62
2023/01/11 08:32:35;;;;;;;1.58;1.30;;;9.10;99.90;;;;;;5077881;28;20028;-62
2023/01/11 08:35:00;;;;;;;1.50;0.90;;;9.10;99.90;;;;;;5096521;28;20046;-62
2023/01/11 08:37:26;;;;;;;1.58;1.20;;;9.10;99.90;;;;;;5096826;28;20036;-61
2023/01/11 08:39:52;;;;;;;2.03;1.33;;;9.10;99.90;;;;;;5096962;28;20028;-62
2023/01/11 08:42:17;;;;;;;1.98;1.45;;;9.10;99.90;;;;;;5077483;28;20027;-62
2023/01/11 08:44:43;;;;;;;4.63;1.60;;;9.10;99.90;;;;;;5096494;28;20016;-62
2023/01/11 08:47:09;;;;;;;2.53;1.20;;;9.10;99.90;;;;;;5077469;28;20024;-59
2023/01/11 08:49:34;;;;;;;2.90;1.40;;;9.10;99.90;;;;;;5075000;28;20028;-57
2023/01/11 08:52:00;;;;;;;2.03;1.75;;;9.10;99.90;;;;;;5085666;28;20399;-60
2023/01/11 08:54:25;;;;;;;2.75;1.50;;;9.10;99.90;;;;;;5095435;28;20480;-61
2023/01/11 08:56:51;;;;;;;2.55;1.63;;;9.00;99.90;;;;;;5095250;28;20533;-60
2023/01/11 08:59:18;;;;;;;4.95;1.55;;;9.00;99.90;;;;;;5095528;28;20507;-60
2023/01/11 09:01:44;;;;;;;5.05;1.80;;;9.00;99.90;;;;;;5075649;28;20053;-59
2023/01/11 09:04:09;;;;;;;5.22;1.58;;;9.00;99.90;;;;;;5077065;28;20020;-59
2023/01/11 09:06:35;;;;;;;3.58;1.10;;;9.00;99.90;;;;;;5094776;28;20028;-61
2023/01/11 09:09:00;;;;;;;1.50;1.40;;;9.00;99.90;;;;;;5076749;28;20111;-58
2023/01/11 09:14:10;;;;;;;3.97;1.45;;;9.10;99.90;;;;;;5095057;28;20047;-58
2023/01/11 09:16:36;;;;;;;4.03;1.70;;;9.10;99.90;;;;;;5094961;28;20042;-57
2023/01/11 09:19:01;;;;;;;3.80;1.60;;;9.10;99.90;;;;;;5076745;28;20108;-59
2023/01/11 09:21:28;;;;;;;2.72;1.45;;;9.10;99.90;;;;;;5095097;28;20039;-61
2023/01/11 09:23:53;;;;;;;2.55;1.27;;;9.10;99.90;;;;;;5093909;28;20099;-59
2023/01/11 09:26:19;;;;;;;3.47;1.25;;;9.10;99.90;;;;;;5094715;28;20106;-61
2023/01/11 09:28:44;;;;;;;2.15;1.48;;;9.10;99.90;;;;;;5077245;28;20403;-60
2023/01/11 09:31:10;;;;;;;1.83;1.70;;;9.10;99.90;;;;;;5095100;28;20024;-50
2023/01/11 09:33:37;;;;;;;4.68;2.17;;;9.10;99.90;;;;;;5088926;28;20391;-55
2023/01/11 09:36:03;;;;;;;3.30;1.45;;;9.10;99.90;;;;;;5074228;28;20028;-55
2023/01/11 09:38:29;;;;;;;2.20;1.60;;;9.10;99.90;;;;;;5081010;28;20020;-56
2023/01/11 09:41:11;;;;;;;2.10;1.85;;;9.10;99.90;;;;;;5094218;28;20031;-48
2023/01/11 09:43:49;;;;;;;4.03;1.38;;;9.10;99.90;;;;;;5093589;28;20016;-55
2023/01/11 09:46:15;;;;;;;1.52;1.20;;;9.10;99.90;;;;;;5094410;28;20031;-56
2023/01/11 09:48:44;;;;;;;1.95;1.40;;;9.10;99.90;;;;;;5094116;28;20020;-52
2023/01/11 09:51:15;;;;;;;4.30;1.30;;;9.20;99.90;;;;;;5093559;28;20020;-58
2023/01/11 09:53:48;;;;;;;3.00;1.63;;;9.20;99.90;;;;;;5093345;28;20504;-53
2023/01/11 09:56:22;;;;;;;3.88;1.45;;;9.20;99.90;;;;;;5094001;28;20479;-55
2023/01/11 09:58:56;;;;;;;1.15;1.05;;;9.20;99.90;;;;;;5094027;28;20395;-55
2023/01/11 10:01:52;;;;;;;1.40;1.30;;;9.30;99.90;;;;;;5093774;28;20060;-57
2023/01/11 10:04:47;;;;;;;1.40;1.00;;;9.30;99.90;;;;;;5093942;28;20485;-56
2023/01/11 10:07:34;;;;;;;2.72;1.10;;;9.30;99.90;;;;;;5094065;28;20028;-56
2023/01/11 10:10:29;;;;;;;1.50;1.17;;;9.40;99.90;;;;;;5092652;28;20016;-57
2023/01/11 10:13:03;;;;;;;3.22;1.25;;;9.40;99.90;;;;;;5092852;28;20028;-57
2023/01/11 10:15:43;;;;;;;1.27;1.17;;;9.30;99.90;;;;;;5093682;28;20024;-58
2023/01/11 10:18:16;;;;;;;1.92;1.23;;;9.40;99.90;;;;;;5093757;28;20024;-56
2023/01/11 10:20:48;;;;;;;1.10;0.98;;;9.40;99.90;;;;;;5093100;28;20051;-51
2023/01/11 10:23:30;;;;;;;3.05;1.02;;;9.40;99.90;;;;;;5074525;28;20027;-59
2023/01/11 10:26:01;;;;;;;1.65;1.35;;;9.50;99.90;;;;;;5075292;28;20016;-58
2023/01/11 10:28:38;;;;;;;2.72;1.33;;;9.50;99.90;;;;;;5093291;28;20046;-58
2023/01/11 10:31:28;;;;;;;1.92;1.02;;;9.40;99.90;;;;;;5093470;28;20023;-63
2023/01/11 10:37:22;;;;;;;1.00;1.00;;;9.50;99.90;;;;;;5093392;28;20070;-58
2023/01/11 10:43:11;;;;;;;3.33;1.10;;;9.60;99.90;;;;;;5091868;28;20435;-61
2023/01/11 10:45:40;;;;;;;2.88;1.23;;;9.60;99.90;;;;;;5093001;28;20028;-57
2023/01/11 10:48:38;;;;;;;4.85;2.17;;;9.60;99.90;;;;;;5092826;28;20118;-62
2023/01/11 10:51:36;;;;;;;1.95;1.20;;;9.60;99.90;;;;;;5093322;28;20390;-61
2023/01/11 10:54:12;;;;;;;2.83;1.90;;;9.60;99.90;;;;;;5092449;28;20442;-62
2023/01/11 10:57:10;;;;;;;1.50;1.25;;;9.70;99.90;;;;;;5075539;28;20074;-60
2023/01/11 10:59:52;;;;;;;2.75;1.52;;;9.70;99.90;;;;;;5076506;28;20024;-62
2023/01/11 11:02:33;;;;;;;2.25;1.40;;;9.60;99.90;;;;;;5075984;28;20107;-62
2023/01/11 11:05:28;;;;;;;1.52;1.35;;;9.70;99.90;;;;;;5094961;28;20145;-62
2023/01/11 11:08:11;;;;;;;1.52;1.25;;;9.70;99.90;;;;;;5075953;28;20388;-59
2023/01/11 11:11:04;;;;;;;1.40;0.90;;;9.70;99.90;;;;;;5092611;28;20044;-61
2023/01/11 11:13:55;;;;;;;2.05;1.25;;;9.80;99.90;;;;;;5091417;28;20016;-61
2023/01/11 11:16:21;;;;;;;3.17;1.08;;;9.80;99.90;;;;;;5092483;28;20095;-58
2023/01/11 11:18:48;;;;;;;1.08;0.98;;;9.80;99.90;;;;;;5089741;28;20531;-53
2023/01/11 11:21:21;;;;;;;1.50;1.10;;;9.90;99.90;;;;;;5090587;28;20449;-62
2023/01/11 11:23:54;;;;;;;0.82;0.80;;;10.10;99.90;;;;;;5091592;28;20541;-64
2023/01/11 11:26:21;;;;;;;2.53;0.85;;;10.20;99.90;;;;;;5086709;28;20431;-59
2023/01/11 11:29:02;;;;;;;1.17;0.73;;;10.20;99.90;;;;;;5092473;28;20372;-57
2023/01/11 11:31:28;;;;;;;1.33;1.00;;;10.30;99.90;;;;;;5092276;28;20032;-55
2023/01/11 11:33:54;;;;;;;3.28;0.98;;;10.40;99.90;;;;;;5057645;28;20067;-55
2023/01/11 11:36:20;;;;;;;3.40;1.15;;;10.30;99.90;;;;;;5071782;28;20116;-55
2023/01/11 11:39:10;;;;;;;2.45;0.90;;;10.30;99.90;;;;;;5071821;28;20060;-52
2023/01/11 11:41:56;;;;;;;1.08;1.00;;;10.40;99.90;;;;;;5054054;28;20047;-50
2023/01/11 11:44:26;;;;;;;3.05;1.10;;;10.30;99.90;;;;;;5073885;28;20025;-54
2023/01/11 11:47:05;;;;;;;1.63;1.10;;;10.30;99.90;;;;;;5091948;28;20103;-55
2023/01/11 11:49:34;;;;;;;3.50;1.48;;;10.30;99.90;;;;;;5092349;28;20039;-57
2023/01/11 11:52:01;;;;;;;3.60;1.20;;;10.40;99.90;;;;;;5091248;28;20098;-58
2023/01/11 11:54:30;;;;;;;3.28;1.27;;;10.40;99.90;;;;;;5091123;28;20089;-55
2023/01/11 11:56:58;;;;;;;3.53;1.40;;;10.50;99.90;;;;;;5092124;28;20048;-53
2023/01/11 11:59:28;;;;;;;2.63;1.52;;;10.50;99.90;;;;;;5090512;28;20496;-55
2023/01/11 12:02:02;;;;;;;1.63;1.30;;;10.50;99.90;;;;;;5079302;28;20391;-55
2023/01/11 12:04:40;;;;;;;2.50;1.30;;;10.60;99.90;;;;;;5080282;28;20031;-52
2023/01/11 12:07:19;;;;;;;1.27;1.15;;;10.60;99.90;;;;;;5058801;28;20082;-54
2023/01/11 12:10:01;;;;;;;1.27;1.10;;;10.70;99.90;;;;;;5056543;28;20028;-56
2023/01/11 12:12:27;;;;;;;1.63;1.13;;;10.70;99.90;;;;;;5091085;28;20113;-53
2023/01/11 12:15:17;;;;;;;2.97;1.00;;;10.60;99.90;;;;;;5091492;28;20064;-51
2023/01/11 12:17:42;;;;;;;2.67;1.02;;;10.70;99.90;;;;;;5090885;28;20028;-54
2023/01/11 12:20:20;;;;;;;3.80;1.25;;;11.00;99.90;;;;;;5076351;28;20090;-55
2023/01/11 12:22:46;;;;;;;2.15;1.90;;;11.00;99.90;;;;;;5073252;28;20043;-49
2023/01/11 12:25:25;;;;;;;2.67;1.25;;;10.60;99.90;;;;;;5091592;28;20028;-54
2023/01/11 12:28:10;;;;;;;1.95;1.10;;;10.60;99.90;;;;;;5073242;28;20020;-54
2023/01/11 12:31:07;;;;;;;1.70;1.10;;;10.50;99.90;;;;;;5091427;28;20024;-54
2023/01/11 12:33:55;;;;;;;1.80;1.05;;;10.50;99.90;;;;;;5072356;28;20024;-52
2023/01/11 12:36:43;;;;;;;3.60;1.60;;;10.50;99.90;;;;;;5076617;28;20027;-55
2023/01/11 12:39:30;;;;;;;1.65;1.30;;;10.50;99.90;;;;;;5073349;28;20116;-54
2023/01/11 12:42:01;;;;;;;2.78;1.33;;;10.50;99.90;;;;;;5090146;28;20020;-54
2023/01/11 12:45:03;;;;;;;3.20;1.50;;;10.40;99.90;;;;;;5087644;28;20459;-57
2023/01/11 12:47:52;;;;;;;3.45;1.42;;;10.40;99.90;;;;;;5085117;28;20024;-54
2023/01/11 12:50:41;;;;;;;2.05;1.95;;;10.50;99.90;;;;;;5091251;28;20016;-54
2023/01/11 12:53:33;;;;;;;1.83;1.38;;;10.60;99.90;;;;;;5090762;28;20028;-54
2023/01/11 12:56:16;;;;;;;2.70;1.40;;;10.50;99.90;;;;;;5086719;28;20024;-55
2023/01/11 12:58:51;;;;;;;0.93;0.93;;;10.50;99.90;;;;;;5085972;28;20028;-55
2023/01/11 13:01:41;;;;;;;1.15;1.00;;;10.50;99.90;;;;;;5071061;28;20028;-56
2023/01/11 13:04:20;;;;;;;2.05;1.25;;;10.50;99.90;;;;;;5080208;28;20040;-56
2023/01/11 13:07:11;;;;;;;1.35;1.10;;;10.50;99.90;;;;;;5090801;28;20459;-50
2023/01/11 13:10:01;;;;;;;1.55;1.45;;;10.60;99.90;;;;;;5074536;28;20024;-51
2023/01/11 13:12:33;;;;;;;1.52;1.30;;;10.60;99.90;;;;;;5086406;28;20035;-49
2023/01/11 13:15:07;;;;;;;1.38;1.27;;;10.60;99.90;;;;;;5087357;28;20091;-54
2023/01/11 13:17:55;;;;;;;2.25;0.90;;;10.60;99.90;;;;;;5074394;28;20027;-53
2023/01/11 13:21:01;;;;;;;3.40;1.13;;;10.60;99.90;;;;;;5084530;22;20512;-60
2023/01/11 13:23:45;;;;;;;0.52;0.52;;;10.60;99.90;;;;;;4975461;28;20525;-59
2023/01/11 13:26:25;;;;;;;0.95;0.90;;;10.70;99.90;;;;;;4993633;28;20518;-60
2023/01/11 13:29:01;;;;;;;1.10;0.90;;;10.70;99.90;;;;;;5021256;28;20033;-59
2023/01/11 13:31:28;;;;;;;1.00;1.00;;;10.80;99.90;;;;;;5040441;28;20075;-61
2023/01/11 13:34:01;;;;;;;2.08;1.85;;;10.80;99.90;;;;;;5052986;28;20029;-51
2023/01/11 13:36:51;;;;;;;2.28;1.60;;;10.80;99.90;;;;;;5053855;28;20029;-48
2023/01/11 13:39:31;;;;;;;1.48;1.38;;;10.70;99.90;;;;;;5053025;28;20091;-47
2023/01/11 13:42:27;;;;;;;1.67;1.20;;;10.80;99.90;;;;;;5052869;28;20150;-49
2023/01/11 13:45:06;;;;;;;;;;;10.80;99.90;;;;;;5054169;28;20412;-46
2023/01/11 13:47:40;;;;;;;6.57;1.13;;;10.80;99.90;;;;;;5053527;28;19905;-47
2023/01/11 13:50:21;;;;;;;1.85;1.17;;;10.80;99.90;;;;;;5064416;28;20028;-48
2023/01/11 13:53:01;;;;;;;2.65;0.80;;;10.80;99.90;;;;;;5072289;28;20028;-48